Southampton, NY

11:49 PM EDT on May 06, 2015 (GMT -0400)
East Hampton | | Change Station
CLOSE
Current Station
Airport
Location: East Hampton,
Elevation: 56 ft
Nearby Weather Stations

Elev 56 ft 40.96 °N, 72.25 °W | Updated 6 hours ago

Clear
Clear
50 °F
Feels Like 50 °F
N
0
Wind Variable Wind from North
Gusts mph

Today
High -- | Low -- °F
--% Chance of Precip.
Yesterday
High -- | Low -- °F
Precip. -- in
5:42 AM 7:51 PM
Waning Gibbous, 91% visible
Pressure 30.25 in
Visibility 10.0 miles
Clouds Scattered Clouds 10000 ft
Dew Point 44 °F
Humidity 80%
Rainfall 0.00 in
Snow Depth Not available.
UV 3 out of 12
Pollen 8.80 out of 12
Air Quality Not available.
Flu Activity Widespread
METAR KHTO 062055Z 13010KT 10SM SCT100 18/01 A3025

More Conditions Fewer Conditions

Pressure 30.25 in
Visibility 10.0 miles
Clouds Scattered Clouds 10000 ft
Dew Point 44 °F
Humidity 80%
Rainfall 0.00 in
Snow Depth Not available.
UV 3 out of 12
Pollen 8.80 out of 12
Air Quality Not available.
Flu Activity Widespread
METAR KHTO 062055Z 13010KT 10SM SCT100 18/01 A3025

More Conditions Fewer Conditions

10-Day Weather Forecast

Almanac

Astronomy

May. 06, 2015 Rise Set
Actual Time
Civil Twilight
Nautical Twilight
Astronomical Twilight
Moon
Length of Visible Light
Length of Day
Tomorrow will be .
, % of the Moon is Illuminated

Today's Extremes

State Highs State Lows

Community

WunderPhotos

Upload Photos

1,819,106 photos uploaded!

WunderBlogs® & News

Nearby

Air Quality

  Air Quality AQ Index Pollutant
Not available.

Snow Depth

Station Depth Elevation

Earthquake Activity

City Distance Mag. Time & Date
Minimum magnitude displayed is 2.5.

Coastal Water Temperatures

Place Temperature

Stations

Nearby Weather Stations

Station Location Temp. Windchill Dew Point Humidity Wind Precip. Elev Updated Type